sensor_id;sensor_type;location;lat;lon;timestamp;temperature;humidity
28761;DHT22;15917;50.014;8.352;2023-04-24T00:00:55;11.60;99.90
28761;DHT22;15917;50.014;8.352;2023-04-24T00:03:23;11.60;99.90
28761;DHT22;15917;50.014;8.352;2023-04-24T00:05:48;11.60;99.90
28761;DHT22;15917;50.014;8.352;2023-04-24T00:08:14;11.60;99.90
28761;DHT22;15917;50.014;8.352;2023-04-24T00:10:40;11.60;99.90
28761;DHT22;15917;50.014;8.352;2023-04-24T00:13:06;11.60;99.90
28761;DHT22;15917;50.014;8.352;2023-04-24T00:15:31;11.60;99.90
28761;DHT22;15917;50.014;8.352;2023-04-24T00:17:57;11.60;99.90
28761;DHT22;15917;50.014;8.352;2023-04-24T00:20:23;11.60;99.90
28761;DHT22;15917;50.014;8.352;2023-04-24T00:22:48;11.60;99.90
28761;DHT22;15917;50.014;8.352;2023-04-24T00:25:15;11.60;99.90
28761;DHT22;15917;50.014;8.352;2023-04-24T00:27:40;11.60;99.90
28761;DHT22;15917;50.014;8.352;2023-04-24T00:30:06;11.60;99.90
28761;DHT22;15917;50.014;8.352;2023-04-24T00:32:32;11.60;99.90
28761;DHT22;15917;50.014;8.352;2023-04-24T00:34:58;11.50;99.90
28761;DHT22;15917;50.014;8.352;2023-04-24T00:37:23;11.40;99.90
28761;DHT22;15917;50.014;8.352;2023-04-24T00:39:49;11.50;99.90
28761;DHT22;15917;50.014;8.352;2023-04-24T00:42:15;11.50;99.90
28761;DHT22;15917;50.014;8.352;2023-04-24T00:44:41;11.50;99.90
28761;DHT22;15917;50.014;8.352;2023-04-24T00:47:07;11.40;99.90
28761;DHT22;15917;50.014;8.352;2023-04-24T00:49:33;11.40;99.90
28761;DHT22;15917;50.014;8.352;2023-04-24T00:51:58;11.30;99.90
28761;DHT22;15917;50.014;8.352;2023-04-24T00:54:24;11.40;99.90
28761;DHT22;15917;50.014;8.352;2023-04-24T00:56:50;11.30;99.90
28761;DHT22;15917;50.014;8.352;2023-04-24T00:59:17;11.30;99.90
28761;DHT22;15917;50.014;8.352;2023-04-24T01:01:43;11.30;99.90
28761;DHT22;15917;50.014;8.352;2023-04-24T01:04:11;11.30;99.90
28761;DHT22;15917;50.014;8.352;2023-04-24T01:06:39;11.30;99.90
28761;DHT22;15917;50.014;8.352;2023-04-24T01:09:05;11.30;99.90
28761;DHT22;15917;50.014;8.352;2023-04-24T01:11:31;11.30;99.90
28761;DHT22;15917;50.014;8.352;2023-04-24T01:13:57;11.30;99.90
28761;DHT22;15917;50.014;8.352;2023-04-24T01:16:22;11.20;99.90
28761;DHT22;15917;50.014;8.352;2023-04-24T01:18:48;11.20;99.90
28761;DHT22;15917;50.014;8.352;2023-04-24T01:21:15;11.10;99.90
28761;DHT22;15917;50.014;8.352;2023-04-24T01:23:43;11.10;99.90
28761;DHT22;15917;50.014;8.352;2023-04-24T01:26:09;11.00;99.90
28761;DHT22;15917;50.014;8.352;2023-04-24T01:28:35;11.10;99.90
28761;DHT22;15917;50.014;8.352;2023-04-24T01:31:04;11.10;99.90
28761;DHT22;15917;50.014;8.352;2023-04-24T01:33:30;11.10;99.90
28761;DHT22;15917;50.014;8.352;2023-04-24T01:35:56;11.10;99.90
28761;DHT22;15917;50.014;8.352;2023-04-24T01:38:22;11.10;99.90
28761;DHT22;15917;50.014;8.352;2023-04-24T01:40:47;11.00;99.90
28761;DHT22;15917;50.014;8.352;2023-04-24T01:43:13;11.00;99.90
28761;DHT22;15917;50.014;8.352;2023-04-24T01:45:39;11.00;99.90
28761;DHT22;15917;50.014;8.352;2023-04-24T01:48:04;11.00;99.90
28761;DHT22;15917;50.014;8.352;2023-04-24T01:50:30;11.00;99.90
28761;DHT22;15917;50.014;8.352;2023-04-24T01:52:56;11.00;99.90
28761;DHT22;15917;50.014;8.352;2023-04-24T01:55:22;11.00;99.90
28761;DHT22;15917;50.014;8.352;2023-04-24T01:57:47;10.90;99.90
28761;DHT22;15917;50.014;8.352;2023-04-24T02:00:14;10.90;99.90
28761;DHT22;15917;50.014;8.352;2023-04-24T02:02:41;10.90;99.90
28761;DHT22;15917;50.014;8.352;2023-04-24T02:05:07;10.90;99.90
28761;DHT22;15917;50.014;8.352;2023-04-24T02:07:35;10.90;99.90
28761;DHT22;15917;50.014;8.352;2023-04-24T02:10:02;10.90;99.90
28761;DHT22;15917;50.014;8.352;2023-04-24T02:12:27;10.90;99.90
28761;DHT22;15917;50.014;8.352;2023-04-24T02:14:53;11.00;99.90
28761;DHT22;15917;50.014;8.352;2023-04-24T02:17:18;11.00;99.90
28761;DHT22;15917;50.014;8.352;2023-04-24T02:19:45;11.10;99.90
28761;DHT22;15917;50.014;8.352;2023-04-24T02:22:10;11.10;99.90
28761;DHT22;15917;50.014;8.352;2023-04-24T02:24:37;11.20;99.90
28761;DHT22;15917;50.014;8.352;2023-04-24T02:27:03;11.20;99.90
28761;DHT22;15917;50.014;8.352;2023-04-24T02:29:28;11.30;99.90
28761;DHT22;15917;50.014;8.352;2023-04-24T02:31:54;11.30;99.90
28761;DHT22;15917;50.014;8.352;2023-04-24T02:34:20;11.30;99.90
28761;DHT22;15917;50.014;8.352;2023-04-24T02:36:45;11.30;99.90
28761;DHT22;15917;50.014;8.352;2023-04-24T02:39:11;11.40;99.90
28761;DHT22;15917;50.014;8.352;2023-04-24T02:41:39;11.30;99.90
28761;DHT22;15917;50.014;8.352;2023-04-24T02:44:04;11.40;99.90
28761;DHT22;15917;50.014;8.352;2023-04-24T02:46:30;11.40;99.90
28761;DHT22;15917;50.014;8.352;2023-04-24T02:48:55;11.40;99.90
28761;DHT22;15917;50.014;8.352;2023-04-24T02:51:21;11.50;99.90
28761;DHT22;15917;50.014;8.352;2023-04-24T02:53:47;11.40;99.90
28761;DHT22;15917;50.014;8.352;2023-04-24T02:56:12;11.40;99.90
28761;DHT22;15917;50.014;8.352;2023-04-24T02:58:38;11.50;99.90
28761;DHT22;15917;50.014;8.352;2023-04-24T03:01:04;11.50;99.90
28761;DHT22;15917;50.014;8.352;2023-04-24T03:03:30;11.50;99.90
28761;DHT22;15917;50.014;8.352;2023-04-24T03:05:56;11.50;99.90
28761;DHT22;15917;50.014;8.352;2023-04-24T03:08:22;11.50;99.90
28761;DHT22;15917;50.014;8.352;2023-04-24T03:10:48;11.50;99.90
28761;DHT22;15917;50.014;8.352;2023-04-24T03:13:15;11.40;99.90
28761;DHT22;15917;50.014;8.352;2023-04-24T03:15:41;11.40;99.90
28761;DHT22;15917;50.014;8.352;2023-04-24T03:18:06;11.40;99.90
28761;DHT22;15917;50.014;8.352;2023-04-24T03:20:32;11.40;99.90
28761;DHT22;15917;50.014;8.352;2023-04-24T03:22:58;11.40;99.90
28761;DHT22;15917;50.014;8.352;2023-04-24T03:25:24;11.40;99.90
28761;DHT22;15917;50.014;8.352;2023-04-24T03:27:51;11.40;99.90
28761;DHT22;15917;50.014;8.352;2023-04-24T03:30:33;11.40;99.90
28761;DHT22;15917;50.014;8.352;2023-04-24T03:33:00;11.40;99.90
28761;DHT22;15917;50.014;8.352;2023-04-24T03:35:28;11.40;99.90
28761;DHT22;15917;50.014;8.352;2023-04-24T03:37:56;11.40;99.90
28761;DHT22;15917;50.014;8.352;2023-04-24T03:40:44;11.40;99.90
28761;DHT22;15917;50.014;8.352;2023-04-24T03:43:28;11.40;99.90
28761;DHT22;15917;50.014;8.352;2023-04-24T03:45:56;11.40;99.90
28761;DHT22;15917;50.014;8.352;2023-04-24T03:48:22;11.40;99.90
28761;DHT22;15917;50.014;8.352;2023-04-24T03:50:49;11.40;99.90
28761;DHT22;15917;50.014;8.352;2023-04-24T03:53:14;11.40;99.90
28761;DHT22;15917;50.014;8.352;2023-04-24T03:55:41;11.40;99.90
28761;DHT22;15917;50.014;8.352;2023-04-24T03:58:08;11.40;99.90
28761;DHT22;15917;50.014;8.352;2023-04-24T04:00:34;11.30;99.90
28761;DHT22;15917;50.014;8.352;2023-04-24T04:03:38;11.30;99.90
28761;DHT22;15917;50.014;8.352;2023-04-24T04:06:04;11.30;99.90
28761;DHT22;15917;50.014;8.352;2023-04-24T04:08:30;11.30;99.90
28761;DHT22;15917;50.014;8.352;2023-04-24T04:10:57;11.30;99.90
28761;DHT22;15917;50.014;8.352;2023-04-24T04:13:22;11.20;99.90
28761;DHT22;15917;50.014;8.352;2023-04-24T04:15:48;11.20;99.90
28761;DHT22;15917;50.014;8.352;2023-04-24T04:18:14;11.20;99.90
28761;DHT22;15917;50.014;8.352;2023-04-24T04:20:40;11.10;99.90
28761;DHT22;15917;50.014;8.352;2023-04-24T04:23:06;11.10;99.90
28761;DHT22;15917;50.014;8.352;2023-04-24T04:25:41;11.10;99.90
28761;DHT22;15917;50.014;8.352;2023-04-24T04:28:07;11.00;99.90
28761;DHT22;15917;50.014;8.352;2023-04-24T04:30:33;11.10;99.90
28761;DHT22;15917;50.014;8.352;2023-04-24T04:33:02;11.10;99.90
28761;DHT22;15917;50.014;8.352;2023-04-24T04:35:29;11.00;99.90
28761;DHT22;15917;50.014;8.352;2023-04-24T04:37:55;11.00;99.90
28761;DHT22;15917;50.014;8.352;2023-04-24T04:40:44;10.90;99.90
28761;DHT22;15917;50.014;8.352;2023-04-24T04:43:12;10.80;99.90
28761;DHT22;15917;50.014;8.352;2023-04-24T04:45:47;10.80;99.90
28761;DHT22;15917;50.014;8.352;2023-04-24T04:48:32;10.80;99.90
28761;DHT22;15917;50.014;8.352;2023-04-24T04:51:00;10.70;99.90
28761;DHT22;15917;50.014;8.352;2023-04-24T04:53:27;10.70;99.90
28761;DHT22;15917;50.014;8.352;2023-04-24T04:55:53;10.60;99.90
28761;DHT22;15917;50.014;8.352;2023-04-24T04:58:21;10.60;99.90
28761;DHT22;15917;50.014;8.352;2023-04-24T05:00:51;10.50;99.90
28761;DHT22;15917;50.014;8.352;2023-04-24T05:03:27;10.50;99.90
28761;DHT22;15917;50.014;8.352;2023-04-24T05:06:02;10.40;99.90
28761;DHT22;15917;50.014;8.352;2023-04-24T05:08:31;10.30;99.90
28761;DHT22;15917;50.014;8.352;2023-04-24T05:10:58;10.30;99.90
28761;DHT22;15917;50.014;8.352;2023-04-24T05:13:26;10.30;99.90
28761;DHT22;15917;50.014;8.352;2023-04-24T05:15:52;10.30;99.90
28761;DHT22;15917;50.014;8.352;2023-04-24T05:18:18;10.20;99.90
28761;DHT22;15917;50.014;8.352;2023-04-24T05:20:44;10.20;99.90
28761;DHT22;15917;50.014;8.352;2023-04-24T05:23:10;10.20;99.90
28761;DHT22;15917;50.014;8.352;2023-04-24T05:25:38;10.20;99.90
28761;DHT22;15917;50.014;8.352;2023-04-24T05:28:08;10.20;99.90
28761;DHT22;15917;50.014;8.352;2023-04-24T05:30:34;10.20;99.90
28761;DHT22;15917;50.014;8.352;2023-04-24T05:33:00;10.20;99.90
28761;DHT22;15917;50.014;8.352;2023-04-24T05:35:26;10.30;99.90
28761;DHT22;15917;50.014;8.352;2023-04-24T05:37:51;10.40;99.90
28761;DHT22;15917;50.014;8.352;2023-04-24T05:40:17;10.40;99.90
28761;DHT22;15917;50.014;8.352;2023-04-24T05:42:43;10.40;99.90
28761;DHT22;15917;50.014;8.352;2023-04-24T05:45:09;10.60;99.90
28761;DHT22;15917;50.014;8.352;2023-04-24T05:47:41;10.90;99.90
28761;DHT22;15917;50.014;8.352;2023-04-24T05:50:07;10.80;99.90
28761;DHT22;15917;50.014;8.352;2023-04-24T05:52:33;10.70;99.90
28761;DHT22;15917;50.014;8.352;2023-04-24T05:55:05;10.50;99.90
28761;DHT22;15917;50.014;8.352;2023-04-24T05:57:33;10.40;99.90
28761;DHT22;15917;50.014;8.352;2023-04-24T06:00:03;10.30;99.90
28761;DHT22;15917;50.014;8.352;2023-04-24T06:02:39;10.30;99.90
28761;DHT22;15917;50.014;8.352;2023-04-24T06:05:06;10.30;99.90
28761;DHT22;15917;50.014;8.352;2023-04-24T06:07:35;10.30;99.90
28761;DHT22;15917;50.014;8.352;2023-04-24T06:10:04;10.40;99.90
28761;DHT22;15917;50.014;8.352;2023-04-24T06:12:37;10.50;99.90
28761;DHT22;15917;50.014;8.352;2023-04-24T06:15:08;10.60;99.90
28761;DHT22;15917;50.014;8.352;2023-04-24T06:18:16;10.70;99.90
28761;DHT22;15917;50.014;8.352;2023-04-24T06:20:51;10.90;99.90
28761;DHT22;15917;50.014;8.352;2023-04-24T06:23:17;11.00;99.90
28761;DHT22;15917;50.014;8.352;2023-04-24T06:25:43;11.00;99.90
28761;DHT22;15917;50.014;8.352;2023-04-24T06:28:10;11.00;99.90
28761;DHT22;15917;50.014;8.352;2023-04-24T06:30:36;11.00;99.90
28761;DHT22;15917;50.014;8.352;2023-04-24T06:33:02;11.10;99.90
28761;DHT22;15917;50.014;8.352;2023-04-24T06:35:27;11.10;99.90
28761;DHT22;15917;50.014;8.352;2023-04-24T06:37:53;11.20;99.90
28761;DHT22;15917;50.014;8.352;2023-04-24T06:40:19;11.30;99.90
28761;DHT22;15917;50.014;8.352;2023-04-24T06:42:44;11.40;99.90
28761;DHT22;15917;50.014;8.352;2023-04-24T06:45:10;11.50;99.90
28761;DHT22;15917;50.014;8.352;2023-04-24T06:47:36;11.60;99.90
28761;DHT22;15917;50.014;8.352;2023-04-24T06:50:03;11.60;99.90
28761;DHT22;15917;50.014;8.352;2023-04-24T06:52:29;11.60;99.90
28761;DHT22;15917;50.014;8.352;2023-04-24T06:55:04;11.80;99.90
28761;DHT22;15917;50.014;8.352;2023-04-24T06:57:31;11.80;99.90
28761;DHT22;15917;50.014;8.352;2023-04-24T06:59:57;11.80;99.90
28761;DHT22;15917;50.014;8.352;2023-04-24T07:02:23;11.70;99.90
28761;DHT22;15917;50.014;8.352;2023-04-24T07:04:48;11.80;99.90
28761;DHT22;15917;50.014;8.352;2023-04-24T07:07:14;11.70;99.90
28761;DHT22;15917;50.014;8.352;2023-04-24T07:09:40;11.70;99.90
28761;DHT22;15917;50.014;8.352;2023-04-24T07:12:10;11.60;99.90
28761;DHT22;15917;50.014;8.352;2023-04-24T07:14:36;11.50;99.90
28761;DHT22;15917;50.014;8.352;2023-04-24T07:17:04;11.40;99.90
28761;DHT22;15917;50.014;8.352;2023-04-24T07:19:33;11.30;99.90
28761;DHT22;15917;50.014;8.352;2023-04-24T07:21:58;11.30;99.90
28761;DHT22;15917;50.014;8.352;2023-04-24T07:24:25;11.20;99.90
28761;DHT22;15917;50.014;8.352;2023-04-24T07:26:51;11.30;99.90
28761;DHT22;15917;50.014;8.352;2023-04-24T07:29:18;11.40;99.90
28761;DHT22;15917;50.014;8.352;2023-04-24T07:31:43;11.40;99.90
28761;DHT22;15917;50.014;8.352;2023-04-24T07:34:09;11.50;99.90
28761;DHT22;15917;50.014;8.352;2023-04-24T07:36:35;11.50;99.90
28761;DHT22;15917;50.014;8.352;2023-04-24T07:39:00;11.60;99.90
28761;DHT22;15917;50.014;8.352;2023-04-24T07:41:26;11.60;99.90
28761;DHT22;15917;50.014;8.352;2023-04-24T07:43:53;11.60;99.90
28761;DHT22;15917;50.014;8.352;2023-04-24T07:46:19;11.70;99.90
28761;DHT22;15917;50.014;8.352;2023-04-24T07:48:45;11.60;99.90
28761;DHT22;15917;50.014;8.352;2023-04-24T07:51:14;11.60;99.90
28761;DHT22;15917;50.014;8.352;2023-04-24T07:53:39;11.80;99.90
28761;DHT22;15917;50.014;8.352;2023-04-24T07:56:05;11.80;99.90
28761;DHT22;15917;50.014;8.352;2023-04-24T07:58:31;11.80;99.90
28761;DHT22;15917;50.014;8.352;2023-04-24T08:00:56;11.80;99.90
28761;DHT22;15917;50.014;8.352;2023-04-24T08:03:22;11.90;99.90
28761;DHT22;15917;50.014;8.352;2023-04-24T08:05:48;12.10;99.90
28761;DHT22;15917;50.014;8.352;2023-04-24T08:08:13;12.30;99.90
28761;DHT22;15917;50.014;8.352;2023-04-24T08:10:39;12.40;99.90
28761;DHT22;15917;50.014;8.352;2023-04-24T08:13:05;12.60;99.90
28761;DHT22;15917;50.014;8.352;2023-04-24T08:15:31;12.70;99.90
28761;DHT22;15917;50.014;8.352;2023-04-24T08:17:57;13.00;99.90
28761;DHT22;15917;50.014;8.352;2023-04-24T08:20:22;13.10;99.90
28761;DHT22;15917;50.014;8.352;2023-04-24T08:22:48;13.10;99.90
28761;DHT22;15917;50.014;8.352;2023-04-24T08:25:14;12.90;99.90
28761;DHT22;15917;50.014;8.352;2023-04-24T08:27:40;13.00;99.90
28761;DHT22;15917;50.014;8.352;2023-04-24T08:30:06;12.80;99.90
28761;DHT22;15917;50.014;8.352;2023-04-24T08:32:32;12.80;99.90
28761;DHT22;15917;50.014;8.352;2023-04-24T08:34:58;12.60;99.90
28761;DHT22;15917;50.014;8.352;2023-04-24T08:37:25;12.50;99.90
28761;DHT22;15917;50.014;8.352;2023-04-24T08:39:51;12.30;99.90
28761;DHT22;15917;50.014;8.352;2023-04-24T08:44:54;12.10;99.90
28761;DHT22;15917;50.014;8.352;2023-04-24T08:47:20;12.00;99.90
28761;DHT22;15917;50.014;8.352;2023-04-24T08:49:48;11.90;99.90
28761;DHT22;15917;50.014;8.352;2023-04-24T08:52:15;12.00;99.90
28761;DHT22;15917;50.014;8.352;2023-04-24T08:54:41;12.00;99.90
28761;DHT22;15917;50.014;8.352;2023-04-24T08:57:09;12.00;99.90
28761;DHT22;15917;50.014;8.352;2023-04-24T08:59:38;11.90;99.90
28761;DHT22;15917;50.014;8.352;2023-04-24T09:02:03;12.10;99.90
28761;DHT22;15917;50.014;8.352;2023-04-24T09:04:30;12.30;99.90
28761;DHT22;15917;50.014;8.352;2023-04-24T09:06:57;12.30;99.90
28761;DHT22;15917;50.014;8.352;2023-04-24T09:09:24;12.30;99.90
28761;DHT22;15917;50.014;8.352;2023-04-24T09:11:51;12.40;99.90
28761;DHT22;15917;50.014;8.352;2023-04-24T09:14:19;12.40;99.90
28761;DHT22;15917;50.014;8.352;2023-04-24T09:16:46;12.30;99.90
28761;DHT22;15917;50.014;8.352;2023-04-24T09:19:11;12.20;99.90
28761;DHT22;15917;50.014;8.352;2023-04-24T09:21:38;12.00;99.90
28761;DHT22;15917;50.014;8.352;2023-04-24T09:24:07;12.00;99.90
28761;DHT22;15917;50.014;8.352;2023-04-24T09:26:35;11.90;99.90
28761;DHT22;15917;50.014;8.352;2023-04-24T09:29:02;11.90;99.90
28761;DHT22;15917;50.014;8.352;2023-04-24T09:31:28;11.90;99.90
28761;DHT22;15917;50.014;8.352;2023-04-24T09:34:03;12.00;99.90
28761;DHT22;15917;50.014;8.352;2023-04-24T09:36:39;12.00;99.90
28761;DHT22;15917;50.014;8.352;2023-04-24T09:39:07;12.00;99.90
28761;DHT22;15917;50.014;8.352;2023-04-24T09:41:33;12.00;99.90
28761;DHT22;15917;50.014;8.352;2023-04-24T09:44:17;12.10;99.90
28761;DHT22;15917;50.014;8.352;2023-04-24T09:46:44;12.00;99.90
28761;DHT22;15917;50.014;8.352;2023-04-24T09:49:13;12.00;99.90
28761;DHT22;15917;50.014;8.352;2023-04-24T09:51:40;12.00;99.90
28761;DHT22;15917;50.014;8.352;2023-04-24T09:54:19;12.00;99.90
28761;DHT22;15917;50.014;8.352;2023-04-24T09:56:50;12.00;99.90
28761;DHT22;15917;50.014;8.352;2023-04-24T09:59:19;12.00;99.90
28761;DHT22;15917;50.014;8.352;2023-04-24T10:01:45;12.00;99.90
28761;DHT22;15917;50.014;8.352;2023-04-24T10:04:23;11.90;99.90
28761;DHT22;15917;50.014;8.352;2023-04-24T10:06:51;11.80;99.90
28761;DHT22;15917;50.014;8.352;2023-04-24T10:09:22;11.80;99.90
28761;DHT22;15917;50.014;8.352;2023-04-24T10:11:49;11.80;99.90
28761;DHT22;15917;50.014;8.352;2023-04-24T10:14:20;11.60;99.90
28761;DHT22;15917;50.014;8.352;2023-04-24T10:16:49;11.60;99.90
28761;DHT22;15917;50.014;8.352;2023-04-24T10:19:16;11.70;99.90
28761;DHT22;15917;50.014;8.352;2023-04-24T10:21:44;11.80;99.90
28761;DHT22;15917;50.014;8.352;2023-04-24T10:24:14;11.80;99.90
28761;DHT22;15917;50.014;8.352;2023-04-24T10:26:41;12.00;99.90
28761;DHT22;15917;50.014;8.352;2023-04-24T10:29:07;12.00;99.90
28761;DHT22;15917;50.014;8.352;2023-04-24T10:31:36;12.00;99.90
28761;DHT22;15917;50.014;8.352;2023-04-24T10:34:04;11.90;99.90
28761;DHT22;15917;50.014;8.352;2023-04-24T10:36:30;11.80;99.90
28761;DHT22;15917;50.014;8.352;2023-04-24T10:38:59;11.60;99.90
28761;DHT22;15917;50.014;8.352;2023-04-24T10:41:26;11.50;99.90
28761;DHT22;15917;50.014;8.352;2023-04-24T10:44:09;11.40;99.90
28761;DHT22;15917;50.014;8.352;2023-04-24T10:46:35;11.50;99.90
28761;DHT22;15917;50.014;8.352;2023-04-24T10:49:05;11.80;99.90
28761;DHT22;15917;50.014;8.352;2023-04-24T10:51:50;11.90;99.90
28761;DHT22;15917;50.014;8.352;2023-04-24T10:54:34;12.30;99.90
28761;DHT22;15917;50.014;8.352;2023-04-24T10:59:45;13.50;99.90
28761;DHT22;15917;50.014;8.352;2023-04-24T11:02:11;14.10;99.90
28761;DHT22;15917;50.014;8.352;2023-04-24T11:04:39;14.20;99.90
28761;DHT22;15917;50.014;8.352;2023-04-24T11:07:05;14.00;99.90
28761;DHT22;15917;50.014;8.352;2023-04-24T11:09:31;14.20;99.90
28761;DHT22;15917;50.014;8.352;2023-04-24T11:12:08;14.20;99.90
28761;DHT22;15917;50.014;8.352;2023-04-24T11:20:08;13.50;99.90
28761;DHT22;15917;50.014;8.352;2023-04-24T11:22:35;13.40;99.90
28761;DHT22;15917;50.014;8.352;2023-04-24T11:25:02;13.40;99.90
28761;DHT22;15917;50.014;8.352;2023-04-24T11:27:31;13.40;99.90
28761;DHT22;15917;50.014;8.352;2023-04-24T11:29:59;13.50;99.90
28761;DHT22;15917;50.014;8.352;2023-04-24T11:32:26;13.60;99.90
28761;DHT22;15917;50.014;8.352;2023-04-24T11:37:34;13.30;99.90
28761;DHT22;15917;50.014;8.352;2023-04-24T11:40:00;13.50;99.90
28761;DHT22;15917;50.014;8.352;2023-04-24T11:42:26;13.80;99.90
28761;DHT22;15917;50.014;8.352;2023-04-24T11:44:54;14.10;99.90
28761;DHT22;15917;50.014;8.352;2023-04-24T11:47:31;14.20;99.90
28761;DHT22;15917;50.014;8.352;2023-04-24T11:49:59;14.40;99.90
28761;DHT22;15917;50.014;8.352;2023-04-24T11:52:26;14.70;99.90
28761;DHT22;15917;50.014;8.352;2023-04-24T11:54:51;15.00;99.90
28761;DHT22;15917;50.014;8.352;2023-04-24T11:57:21;14.90;99.90
28761;DHT22;15917;50.014;8.352;2023-04-24T11:59:48;14.50;99.90
28761;DHT22;15917;50.014;8.352;2023-04-24T12:02:24;14.20;99.90
28761;DHT22;15917;50.014;8.352;2023-04-24T12:04:51;14.10;99.90
28761;DHT22;15917;50.014;8.352;2023-04-24T12:07:17;13.70;99.90
28761;DHT22;15917;50.014;8.352;2023-04-24T12:09:57;14.10;99.90
28761;DHT22;15917;50.014;8.352;2023-04-24T12:12:28;14.80;99.90
28761;DHT22;15917;50.014;8.352;2023-04-24T12:14:58;14.60;99.90
28761;DHT22;15917;50.014;8.352;2023-04-24T12:17:29;14.10;99.90
28761;DHT22;15917;50.014;8.352;2023-04-24T12:20:01;13.50;99.90
28761;DHT22;15917;50.014;8.352;2023-04-24T12:22:28;13.30;99.90
28761;DHT22;15917;50.014;8.352;2023-04-24T12:25:03;13.00;99.90
28761;DHT22;15917;50.014;8.352;2023-04-24T12:27:34;12.90;99.90
28761;DHT22;15917;50.014;8.352;2023-04-24T12:30:00;12.90;99.90
28761;DHT22;15917;50.014;8.352;2023-04-24T12:32:27;12.80;99.90
28761;DHT22;15917;50.014;8.352;2023-04-24T12:34:53;12.90;99.90
28761;DHT22;15917;50.014;8.352;2023-04-24T12:37:19;13.00;99.90
28761;DHT22;15917;50.014;8.352;2023-04-24T12:40:05;13.00;99.90
28761;DHT22;15917;50.014;8.352;2023-04-24T12:42:32;13.20;99.90
28761;DHT22;15917;50.014;8.352;2023-04-24T12:45:03;13.40;99.90
28761;DHT22;15917;50.014;8.352;2023-04-24T12:47:31;13.70;99.90
28761;DHT22;15917;50.014;8.352;2023-04-24T12:49:57;13.90;99.90
28761;DHT22;15917;50.014;8.352;2023-04-24T12:52:23;14.10;99.90
28761;DHT22;15917;50.014;8.352;2023-04-24T12:54:50;14.30;99.90
28761;DHT22;15917;50.014;8.352;2023-04-24T12:57:17;14.60;99.90
28761;DHT22;15917;50.014;8.352;2023-04-24T12:59:43;15.20;99.90
28761;DHT22;15917;50.014;8.352;2023-04-24T13:02:09;15.60;99.90
28761;DHT22;15917;50.014;8.352;2023-04-24T13:04:38;15.70;99.90
28761;DHT22;15917;50.014;8.352;2023-04-24T13:07:05;15.30;99.90
28761;DHT22;15917;50.014;8.352;2023-04-24T13:09:31;14.90;99.90
28761;DHT22;15917;50.014;8.352;2023-04-24T13:11:57;14.80;99.90
28761;DHT22;15917;50.014;8.352;2023-04-24T13:14:23;14.80;99.90
28761;DHT22;15917;50.014;8.352;2023-04-24T13:16:49;14.80;99.90
28761;DHT22;15917;50.014;8.352;2023-04-24T13:19:15;14.60;99.90
28761;DHT22;15917;50.014;8.352;2023-04-24T13:21:40;14.60;99.90
28761;DHT22;15917;50.014;8.352;2023-04-24T13:24:06;14.60;99.90
28761;DHT22;15917;50.014;8.352;2023-04-24T13:26:33;14.50;99.90
28761;DHT22;15917;50.014;8.352;2023-04-24T13:28:59;14.40;99.90
28761;DHT22;15917;50.014;8.352;2023-04-24T13:31:24;14.00;99.90
28761;DHT22;15917;50.014;8.352;2023-04-24T13:33:50;13.70;99.90
28761;DHT22;15917;50.014;8.352;2023-04-24T13:36:16;13.70;99.90
28761;DHT22;15917;50.014;8.352;2023-04-24T13:38:43;13.60;99.90
28761;DHT22;15917;50.014;8.352;2023-04-24T13:41:10;13.60;99.90
28761;DHT22;15917;50.014;8.352;2023-04-24T13:43:36;13.50;99.90
28761;DHT22;15917;50.014;8.352;2023-04-24T13:46:01;13.70;99.90
28761;DHT22;15917;50.014;8.352;2023-04-24T13:48:29;13.90;99.90
28761;DHT22;15917;50.014;8.352;2023-04-24T13:50:55;14.60;99.90
28761;DHT22;15917;50.014;8.352;2023-04-24T13:53:20;15.20;99.90
28761;DHT22;15917;50.014;8.352;2023-04-24T13:55:46;15.40;99.90
28761;DHT22;15917;50.014;8.352;2023-04-24T13:58:12;15.30;99.90
28761;DHT22;15917;50.014;8.352;2023-04-24T14:00:37;15.20;99.90
28761;DHT22;15917;50.014;8.352;2023-04-24T14:03:03;15.20;99.90
28761;DHT22;15917;50.014;8.352;2023-04-24T14:05:29;15.30;99.90
28761;DHT22;15917;50.014;8.352;2023-04-24T14:07:54;15.30;99.90
28761;DHT22;15917;50.014;8.352;2023-04-24T14:10:20;15.30;99.90
28761;DHT22;15917;50.014;8.352;2023-04-24T14:12:46;15.10;99.90
28761;DHT22;15917;50.014;8.352;2023-04-24T14:15:11;15.20;99.90
28761;DHT22;15917;50.014;8.352;2023-04-24T14:17:39;15.10;99.90
28761;DHT22;15917;50.014;8.352;2023-04-24T14:20:05;15.00;99.90
28761;DHT22;15917;50.014;8.352;2023-04-24T14:22:32;14.90;99.90
28761;DHT22;15917;50.014;8.352;2023-04-24T14:24:58;14.80;99.90
28761;DHT22;15917;50.014;8.352;2023-04-24T14:27:24;14.80;99.90
28761;DHT22;15917;50.014;8.352;2023-04-24T14:29:51;14.80;99.90
28761;DHT22;15917;50.014;8.352;2023-04-24T14:32:16;14.70;99.90
28761;DHT22;15917;50.014;8.352;2023-04-24T14:34:42;14.50;99.90
28761;DHT22;15917;50.014;8.352;2023-04-24T14:37:08;14.40;99.90
28761;DHT22;15917;50.014;8.352;2023-04-24T14:39:33;14.40;99.90
28761;DHT22;15917;50.014;8.352;2023-04-24T14:42:00;14.60;99.90
28761;DHT22;15917;50.014;8.352;2023-04-24T14:44:26;14.50;99.90
28761;DHT22;15917;50.014;8.352;2023-04-24T14:46:52;14.60;99.90
28761;DHT22;15917;50.014;8.352;2023-04-24T14:49:18;14.90;99.90
28761;DHT22;15917;50.014;8.352;2023-04-24T14:51:43;15.40;99.90
28761;DHT22;15917;50.014;8.352;2023-04-24T14:54:09;15.40;99.90
28761;DHT22;15917;50.014;8.352;2023-04-24T14:56:35;15.30;99.90
28761;DHT22;15917;50.014;8.352;2023-04-24T14:59:01;15.10;99.90
28761;DHT22;15917;50.014;8.352;2023-04-24T15:01:27;15.00;99.90
28761;DHT22;15917;50.014;8.352;2023-04-24T15:03:52;14.80;99.90
28761;DHT22;15917;50.014;8.352;2023-04-24T15:06:18;14.50;99.90
28761;DHT22;15917;50.014;8.352;2023-04-24T15:08:44;14.50;99.90
28761;DHT22;15917;50.014;8.352;2023-04-24T15:11:10;14.40;99.90
28761;DHT22;15917;50.014;8.352;2023-04-24T15:13:36;14.30;99.90
28761;DHT22;15917;50.014;8.352;2023-04-24T15:16:01;14.30;99.90
28761;DHT22;15917;50.014;8.352;2023-04-24T15:18:27;14.20;99.90
28761;DHT22;15917;50.014;8.352;2023-04-24T15:20:55;14.20;99.90
28761;DHT22;15917;50.014;8.352;2023-04-24T15:23:21;14.30;99.90
28761;DHT22;15917;50.014;8.352;2023-04-24T15:25:47;14.40;99.90
28761;DHT22;15917;50.014;8.352;2023-04-24T15:28:13;14.40;99.90
28761;DHT22;15917;50.014;8.352;2023-04-24T15:30:39;14.40;99.90
28761;DHT22;15917;50.014;8.352;2023-04-24T15:33:04;14.30;99.90
28761;DHT22;15917;50.014;8.352;2023-04-24T15:35:30;14.20;99.90
28761;DHT22;15917;50.014;8.352;2023-04-24T15:37:56;14.10;99.90
28761;DHT22;15917;50.014;8.352;2023-04-24T15:40:22;14.20;99.90
28761;DHT22;15917;50.014;8.352;2023-04-24T15:42:48;14.10;99.90
28761;DHT22;15917;50.014;8.352;2023-04-24T15:45:13;14.20;99.90